createdAt,value
2023-04-04T00:02:01.662Z,1.83
2023-04-04T00:04:29.649Z,2.27
2023-04-04T00:06:57.809Z,2.23
2023-04-04T00:09:25.862Z,2.40
2023-04-04T00:11:53.976Z,2.47
2023-04-04T00:14:22.457Z,2.00
2023-04-04T00:16:51.890Z,2.50
2023-04-04T00:19:19.835Z,1.90
2023-04-04T00:21:47.832Z,2.17
2023-04-04T00:24:19.716Z,2.53
2023-04-04T00:26:47.732Z,2.37
2023-04-04T00:29:15.729Z,2.57
2023-04-04T00:31:43.765Z,2.50
2023-04-04T00:34:13.211Z,2.20
2023-04-04T00:36:41.738Z,2.80
2023-04-04T00:39:09.975Z,2.13
2023-04-04T00:41:38.555Z,2.40
2023-04-04T00:44:08.377Z,2.00
2023-04-04T00:46:38.694Z,1.93
2023-04-04T00:49:07.558Z,2.37
2023-04-04T00:51:39.028Z,2.17
2023-04-04T00:54:09.228Z,1.67
2023-04-04T00:56:41.573Z,2.30
2023-04-04T00:59:11.741Z,2.17
2023-04-04T01:01:39.966Z,2.20
2023-04-04T01:04:07.993Z,2.03
2023-04-04T01:06:38.360Z,2.13
2023-04-04T01:09:07.324Z,2.20
2023-04-04T01:11:36.307Z,1.87
2023-04-04T01:14:04.292Z,2.23
2023-04-04T01:16:32.308Z,2.20
2023-04-04T01:19:00.473Z,1.67
2023-04-04T01:21:30.593Z,1.83
2023-04-04T01:24:03.027Z,2.20
2023-04-04T01:26:33.490Z,1.70
2023-04-04T01:29:01.698Z,2.57
2023-04-04T01:31:33.519Z,2.20
2023-04-04T01:34:10.796Z,2.23
2023-04-04T01:36:44.635Z,2.53
2023-04-04T01:39:19.778Z,2.10
2023-04-04T01:41:50.251Z,2.13
2023-04-04T01:44:22.889Z,2.00
2023-04-04T01:46:59.325Z,2.10
2023-04-04T01:49:27.831Z,3.00
2023-04-04T01:51:56.916Z,1.90
2023-04-04T01:54:26.114Z,2.23
2023-04-04T01:56:57.352Z,1.87
2023-04-04T01:59:25.883Z,1.60
2023-04-04T02:01:55.365Z,2.10
2023-04-04T02:04:28.235Z,1.83
2023-04-04T02:06:57.164Z,2.07
2023-04-04T02:09:25.607Z,2.00
2023-04-04T02:11:58.720Z,2.17
2023-04-04T02:14:26.698Z,1.87
2023-04-04T02:16:54.669Z,2.53
2023-04-04T02:19:22.695Z,2.30
2023-04-04T02:21:56.565Z,1.70
2023-04-04T02:24:24.636Z,1.87
2023-04-04T02:26:52.649Z,1.80
2023-04-04T02:29:21.970Z,1.87
2023-04-04T02:31:49.985Z,1.63
2023-04-04T02:34:18.288Z,2.30
2023-04-04T02:36:46.347Z,1.83
2023-04-04T02:39:15.354Z,2.13
2023-04-04T02:41:43.370Z,2.00
2023-04-04T02:44:12.469Z,2.73
2023-04-04T02:46:43.837Z,2.17
2023-04-04T02:49:12.557Z,1.90
2023-04-04T02:51:40.652Z,2.37
2023-04-04T02:54:11.808Z,2.03
2023-04-04T02:56:39.863Z,1.87
2023-04-04T02:59:07.900Z,1.47
2023-04-04T03:01:35.973Z,1.80
2023-04-04T03:04:05.833Z,1.93
2023-04-04T03:06:49.252Z,2.00
2023-04-04T03:09:17.245Z,2.10
2023-04-04T03:11:45.885Z,1.80
2023-04-04T03:14:13.873Z,1.80
2023-04-04T03:16:42.066Z,2.17
2023-04-04T03:19:12.100Z,2.50
2023-04-04T03:21:40.065Z,1.70
2023-04-04T03:24:08.393Z,2.70
2023-04-04T03:26:36.504Z,2.30
2023-04-04T03:29:04.862Z,1.93
2023-04-04T03:31:37.103Z,2.33
2023-04-04T03:34:05.388Z,2.10
2023-04-04T03:36:35.776Z,2.10
2023-04-04T03:39:03.802Z,2.00
2023-04-04T03:41:31.788Z,1.73
2023-04-04T03:43:59.768Z,2.30
2023-04-04T03:46:27.922Z,2.07
2023-04-04T03:49:07.865Z,2.43
2023-04-04T03:51:37.331Z,2.10
2023-04-04T03:54:05.536Z,2.50
2023-04-04T03:56:33.685Z,2.20
2023-04-04T03:59:01.808Z,2.30
2023-04-04T04:01:31.045Z,2.10
2023-04-04T04:04:01.147Z,2.63
2023-04-04T04:06:29.383Z,1.93
2023-04-04T04:08:58.958Z,2.07
2023-04-04T04:11:28.141Z,2.10
2023-04-04T04:13:56.598Z,2.00
2023-04-04T04:16:24.675Z,2.07
2023-04-04T04:18:52.736Z,1.67
2023-04-04T04:21:23.882Z,1.97
2023-04-04T04:23:51.812Z,2.10
2023-04-04T04:26:21.320Z,1.93
2023-04-04T04:28:49.338Z,2.30
2023-04-04T04:31:17.335Z,1.90
2023-04-04T04:33:45.890Z,2.57
2023-04-04T04:36:17.483Z,1.83
2023-04-04T04:38:47.581Z,2.13
2023-04-04T04:41:15.647Z,2.20
2023-04-04T04:43:45.508Z,1.80
2023-04-04T04:46:14.970Z,1.90
2023-04-04T04:48:43.123Z,1.80
2023-04-04T04:51:12.385Z,2.10
2023-04-04T04:53:40.661Z,2.00
2023-04-04T04:56:09.036Z,2.10
2023-04-04T04:58:37.041Z,1.93
2023-04-04T05:01:06.549Z,2.23
2023-04-04T05:03:35.086Z,2.23
2023-04-04T05:06:03.076Z,2.20
2023-04-04T05:08:32.494Z,2.10
2023-04-04T05:11:00.612Z,0.80
2023-04-04T05:13:28.594Z,2.03
2023-04-04T05:15:56.693Z,2.00
2023-04-04T05:18:27.479Z,2.23
2023-04-04T05:20:55.838Z,2.23
2023-04-04T05:23:23.991Z,2.00
2023-04-04T05:25:53.267Z,2.60
2023-04-04T05:28:21.799Z,1.90
2023-04-04T05:30:50.204Z,2.23
2023-04-04T05:33:20.381Z,2.30
2023-04-04T05:35:49.888Z,2.17
2023-04-04T05:38:17.991Z,2.23
2023-04-04T05:40:47.948Z,2.80
2023-04-04T05:43:15.907Z,2.40
2023-04-04T05:45:43.904Z,2.20
2023-04-04T05:48:11.920Z,2.27
2023-04-04T05:50:39.984Z,2.33
2023-04-04T05:53:09.428Z,2.27
2023-04-04T05:55:37.378Z,1.97
2023-04-04T05:58:05.481Z,1.90
2023-04-04T06:00:33.460Z,1.87
2023-04-04T06:03:01.688Z,2.37
2023-04-04T06:05:29.765Z,2.27
2023-04-04T06:07:57.904Z,2.23
2023-04-04T06:10:27.874Z,2.60
2023-04-04T06:12:55.965Z,1.97
2023-04-04T06:15:23.959Z,2.50
2023-04-04T06:17:51.950Z,2.40
2023-04-04T06:20:22.659Z,1.90
2023-04-04T06:22:50.771Z,2.10
2023-04-04T06:25:19.227Z,2.33
2023-04-04T06:27:48.687Z,1.77
2023-04-04T06:30:18.146Z,2.30
2023-04-04T06:32:46.136Z,2.50
2023-04-04T06:35:14.144Z,2.10
2023-04-04T06:37:42.148Z,2.47
2023-04-04T06:40:10.910Z,2.33
2023-04-04T06:42:38.938Z,2.07
2023-04-04T06:45:09.426Z,2.10
2023-04-04T06:47:37.437Z,2.23
2023-04-04T06:50:06.075Z,2.60
2023-04-04T06:52:34.549Z,1.83
2023-04-04T06:55:02.540Z,2.40
2023-04-04T06:57:30.540Z,2.17
2023-04-04T07:00:03.322Z,2.60
2023-04-04T07:02:38.660Z,2.23
2023-04-04T07:05:17.778Z,2.10
2023-04-04T07:07:54.526Z,2.23
2023-04-04T07:10:22.504Z,2.40
2023-04-04T07:12:51.066Z,2.20
2023-04-04T07:15:19.384Z,2.67
2023-04-04T07:17:48.895Z,2.20
2023-04-04T07:20:16.889Z,1.90
2023-04-04T07:22:44.853Z,2.10
2023-04-04T07:25:13.520Z,2.50
2023-04-04T07:27:41.859Z,1.80
2023-04-04T07:30:11.118Z,2.10
2023-04-04T07:32:39.289Z,2.27
2023-04-04T07:35:09.672Z,2.57
2023-04-04T07:37:38.656Z,2.33
2023-04-04T07:40:09.425Z,2.23
2023-04-04T07:42:37.987Z,2.17
2023-04-04T07:45:06.529Z,2.40
2023-04-04T07:47:34.517Z,1.87
2023-04-04T07:50:02.622Z,2.00
2023-04-04T07:52:32.007Z,2.00
2023-04-04T07:55:01.011Z,2.30
2023-04-04T07:57:29.064Z,2.07
2023-04-04T07:59:57.139Z,2.30
2023-04-04T08:02:25.343Z,2.10
2023-04-04T08:04:55.939Z,2.00
2023-04-04T08:07:29.266Z,2.00
2023-04-04T08:09:59.807Z,2.13
2023-04-04T08:12:27.851Z,2.23
2023-04-04T08:14:55.977Z,2.10
2023-04-04T08:17:24.725Z,1.70
2023-04-04T08:19:52.781Z,2.57
2023-04-04T08:22:21.142Z,2.40
2023-04-04T08:24:49.165Z,1.93
2023-04-04T08:27:18.686Z,1.93
2023-04-04T08:29:48.017Z,2.10
2023-04-04T08:32:17.060Z,2.07
2023-04-04T08:34:45.035Z,1.93
2023-04-04T08:37:13.057Z,2.10
2023-04-04T08:39:41.032Z,2.10
2023-04-04T08:42:09.441Z,1.70
2023-04-04T08:44:39.565Z,2.73
2023-04-04T08:47:10.521Z,2.30
2023-04-04T08:49:42.389Z,2.40
2023-04-04T08:52:13.004Z,2.23
2023-04-04T08:54:43.367Z,2.17
2023-04-04T08:57:11.817Z,2.57
2023-04-04T08:59:41.400Z,1.80
2023-04-04T09:02:20.943Z,2.10
2023-04-04T09:05:02.431Z,2.10
2023-04-04T09:07:34.373Z,2.17
2023-04-04T09:10:11.733Z,2.60
2023-04-04T09:12:43.139Z,1.93
2023-04-04T09:15:13.604Z,1.80
2023-04-04T09:17:41.817Z,2.03
2023-04-04T09:20:35.942Z,2.53
2023-04-04T09:23:07.808Z,2.03
2023-04-04T09:25:36.584Z,2.03
2023-04-04T09:28:05.697Z,2.80
2023-04-04T09:30:36.155Z,2.13
2023-04-04T09:33:06.180Z,2.10
2023-04-04T09:35:36.493Z,2.10
2023-04-04T09:38:04.817Z,2.10
2023-04-04T09:40:33.509Z,2.10
2023-04-04T09:43:02.433Z,2.30
2023-04-04T09:45:32.639Z,2.37
2023-04-04T09:48:02.229Z,2.07
2023-04-04T09:50:30.497Z,2.03
2023-04-04T09:53:00.458Z,2.30
2023-04-04T09:55:36.334Z,2.50
2023-04-04T09:58:13.533Z,2.10
2023-04-04T10:00:44.926Z,2.70
2023-04-04T10:03:16.057Z,2.20
2023-04-04T10:05:45.838Z,2.30
2023-04-04T10:08:18.603Z,2.10
2023-04-04T10:11:02.658Z,2.47
2023-04-04T10:13:40.839Z,2.03
2023-04-04T10:16:10.732Z,2.03
2023-04-04T10:18:40.893Z,2.07
2023-04-04T10:23:42.863Z,1.80
2023-04-04T10:26:12.564Z,1.80
2023-04-04T10:28:42.190Z,2.10
2023-04-04T10:31:17.359Z,1.80
2023-04-04T10:33:53.801Z,2.20
2023-04-04T10:36:24.683Z,2.13
2023-04-04T10:39:04.783Z,2.17
2023-04-04T10:41:33.633Z,2.10
2023-04-04T10:44:12.808Z,1.90
2023-04-04T10:46:44.295Z,2.17
2023-04-04T10:49:14.302Z,1.90
2023-04-04T10:51:54.932Z,2.10
2023-04-04T10:54:24.307Z,2.60
2023-04-04T10:56:52.810Z,1.83
2023-04-04T10:59:21.892Z,1.98
2023-04-04T11:01:52.102Z,2.10
2023-04-04T11:04:29.597Z,2.05
2023-04-04T11:07:17.404Z,1.90
2023-04-04T11:09:56.379Z,1.85
2023-04-04T11:12:36.251Z,1.98
2023-04-04T11:15:12.889Z,1.75
2023-04-04T11:17:56.546Z,2.30
2023-04-04T11:20:30.800Z,2.20
2023-04-04T11:23:06.560Z,1.90
2023-04-04T11:25:39.831Z,1.92
2023-04-04T11:28:25.919Z,1.88
2023-04-04T11:31:25.024Z,2.10
2023-04-04T11:34:04.542Z,2.15
2023-04-04T11:36:53.437Z,2.38
2023-04-04T11:39:29.493Z,2.03
2023-04-04T11:42:03.506Z,2.10
2023-04-04T11:44:34.276Z,1.85
2023-04-04T11:47:04.470Z,2.03
2023-04-04T11:49:35.761Z,2.03
2023-04-04T11:52:11.073Z,2.23
2023-04-04T11:54:40.054Z,2.10
2023-04-04T11:57:18.851Z,2.73
2023-04-04T11:59:48.838Z,1.88
2023-04-04T12:02:20.674Z,2.10
2023-04-04T12:04:49.115Z,2.00
2023-04-04T12:07:18.841Z,2.20
2023-04-04T12:09:47.210Z,2.45
2023-04-04T12:12:24.263Z,2.67
2023-04-04T12:14:52.764Z,2.00
2023-04-04T12:17:21.683Z,2.42
2023-04-04T12:19:49.639Z,2.50
2023-04-04T12:22:20.282Z,2.45
2023-04-04T12:24:48.366Z,2.03
2023-04-04T12:27:16.615Z,2.45
2023-04-04T12:29:47.599Z,2.17
2023-04-04T12:32:16.375Z,2.40
2023-04-04T12:34:48.772Z,2.28
2023-04-04T12:37:23.602Z,2.50
2023-04-04T12:39:52.384Z,2.53
2023-04-04T12:42:24.361Z,2.30
2023-04-04T12:44:53.794Z,2.15
2023-04-04T12:47:28.692Z,2.40
2023-04-04T12:49:57.144Z,2.30
2023-04-04T12:52:41.035Z,2.58
2023-04-04T12:55:12.893Z,2.30
2023-04-04T12:57:41.414Z,2.50
2023-04-04T13:00:10.451Z,2.33
2023-04-04T13:02:41.091Z,2.55
2023-04-04T13:05:11.223Z,2.22
2023-04-04T13:07:45.944Z,2.38
2023-04-04T13:10:16.464Z,2.40
2023-04-04T13:12:58.639Z,2.40
2023-04-04T13:15:49.165Z,2.42
2023-04-04T13:18:18.597Z,2.63
2023-04-04T13:20:46.696Z,2.10
2023-04-04T13:23:16.917Z,2.05
2023-04-04T13:25:46.053Z,2.33
2023-04-04T13:28:14.397Z,2.10
2023-04-04T13:30:46.795Z,2.45
2023-04-04T13:33:16.198Z,2.50
2023-04-04T13:35:45.863Z,2.20
2023-04-04T13:38:15.323Z,2.50
2023-04-04T13:40:44.322Z,2.40
2023-04-04T13:43:34.024Z,2.47
2023-04-04T13:46:02.208Z,2.50
2023-04-04T13:48:31.211Z,2.33
2023-04-04T13:50:59.204Z,2.42
2023-04-04T13:53:28.504Z,2.50
2023-04-04T13:56:17.167Z,2.50
2023-04-04T13:58:44.496Z,2.10
2023-04-04T14:01:12.569Z,2.47
2023-04-04T14:03:48.958Z,2.75
2023-04-04T14:06:16.966Z,2.67
2023-04-04T14:08:47.683Z,2.47
2023-04-04T14:11:16.100Z,2.70
2023-04-04T14:13:44.098Z,2.85
2023-04-04T14:16:12.353Z,2.45
2023-04-04T14:18:40.482Z,2.53
2023-04-04T14:21:09.471Z,2.15
2023-04-04T14:23:37.520Z,2.17
2023-04-04T14:26:07.269Z,2.55
2023-04-04T14:28:41.317Z,2.40
2023-04-04T14:31:09.497Z,2.70
2023-04-04T14:33:37.532Z,2.67
2023-04-04T14:36:06.313Z,2.60
2023-04-04T14:38:34.307Z,2.53
2023-04-04T14:41:02.409Z,2.50
2023-04-04T14:43:31.973Z,2.45
2023-04-04T14:45:59.966Z,2.55
2023-04-04T14:48:28.056Z,2.45
2023-04-04T14:50:56.060Z,2.72
2023-04-04T14:53:24.152Z,2.75
2023-04-04T14:56:02.327Z,2.58
2023-04-04T14:58:33.269Z,2.50
2023-04-04T15:01:05.993Z,2.22
2023-04-04T15:03:34.958Z,2.20
2023-04-04T15:06:04.367Z,2.17
2023-04-04T15:08:32.376Z,2.25
2023-04-04T15:11:02.485Z,2.97
2023-04-04T15:13:32.137Z,2.55
2023-04-04T15:16:01.452Z,2.40
2023-04-04T15:18:29.564Z,2.67
2023-04-04T15:20:59.170Z,2.40
2023-04-04T15:23:27.231Z,2.22
2023-04-04T15:25:55.301Z,2.40
2023-04-04T15:28:25.510Z,2.55
2023-04-04T15:30:57.523Z,2.55
2023-04-04T15:33:38.242Z,2.40
2023-04-04T15:36:06.766Z,2.15
2023-04-04T15:38:34.808Z,2.20
2023-04-04T15:41:02.774Z,2.42
2023-04-04T15:43:32.436Z,2.85
2023-04-04T15:46:03.515Z,2.38
2023-04-04T15:48:36.843Z,2.47
2023-04-04T15:51:07.997Z,2.60
2023-04-04T15:53:38.064Z,2.30
2023-04-04T15:56:07.536Z,2.00
2023-04-04T15:58:38.725Z,2.50
2023-04-04T16:01:08.793Z,2.42
2023-04-04T16:03:38.991Z,2.35
2023-04-04T16:06:13.855Z,2.45
2023-04-04T16:08:44.554Z,2.25
2023-04-04T16:11:19.372Z,2.78
2023-04-04T16:13:49.809Z,2.60
2023-04-04T16:16:19.635Z,2.60
2023-04-04T16:18:47.669Z,2.65
2023-04-04T16:21:16.743Z,2.20
2023-04-04T16:23:44.741Z,2.75
2023-04-04T16:26:16.950Z,2.47
2023-04-04T16:28:47.187Z,2.60
2023-04-04T16:31:21.971Z,2.75
2023-04-04T16:33:49.949Z,2.50
2023-04-04T16:36:18.096Z,2.50
2023-04-04T16:38:47.103Z,2.35
2023-04-04T16:41:17.439Z,2.90
2023-04-04T16:43:49.612Z,2.70
2023-04-04T16:46:18.666Z,3.15
2023-04-04T16:48:57.951Z,2.55
2023-04-04T16:51:29.830Z,2.47
2023-04-04T16:54:00.950Z,2.90
2023-04-04T16:56:33.046Z,2.60
2023-04-04T16:59:02.323Z,2.47
2023-04-04T17:01:31.957Z,2.50
2023-04-04T17:04:07.524Z,2.40
2023-04-04T17:06:37.596Z,2.73
2023-04-04T17:09:05.570Z,2.47
2023-04-04T17:11:44.464Z,3.00
2023-04-04T17:14:21.376Z,2.80
2023-04-04T17:16:52.327Z,2.50
2023-04-04T17:19:23.793Z,2.53
2023-04-04T17:21:52.210Z,2.80
2023-04-04T17:24:23.150Z,2.97
2023-04-04T17:26:53.501Z,2.83
2023-04-04T17:29:26.832Z,2.27
2023-04-04T17:31:56.143Z,2.60
2023-04-04T17:34:25.709Z,2.53
2023-04-04T17:36:54.375Z,2.57
2023-04-04T17:39:23.660Z,2.60
2023-04-04T17:41:53.752Z,2.50
2023-04-04T17:44:31.275Z,2.30
2023-04-04T17:46:59.686Z,2.47
2023-04-04T17:49:31.349Z,2.93
2023-04-04T17:51:59.295Z,2.50
2023-04-04T17:54:28.313Z,2.40
2023-04-04T17:56:57.184Z,2.73
2023-04-04T17:59:25.234Z,2.83
2023-04-04T18:01:53.425Z,2.53
2023-04-04T18:04:22.253Z,2.57
2023-04-04T18:06:54.471Z,2.40
2023-04-04T18:09:29.516Z,2.50
2023-04-04T18:12:00.979Z,2.80
2023-04-04T18:14:31.388Z,2.10
2023-04-04T18:16:59.334Z,2.80
2023-04-04T18:19:27.358Z,3.10
2023-04-04T18:22:09.389Z,3.93
2023-04-04T18:24:37.981Z,3.13
2023-04-04T18:27:06.332Z,3.20
2023-04-04T18:29:35.338Z,3.33
2023-04-04T18:32:04.659Z,4.50
2023-04-04T18:34:34.750Z,4.23
2023-04-04T18:37:02.680Z,6.03
2023-04-04T18:39:32.041Z,6.17
2023-04-04T18:42:00.181Z,3.83
2023-04-04T18:44:28.221Z,3.43
2023-04-04T18:46:58.149Z,2.60
2023-04-04T18:49:31.526Z,3.20
2023-04-04T18:51:59.510Z,3.00
2023-04-04T18:54:28.879Z,3.50
2023-04-04T18:56:58.379Z,2.60
2023-04-04T18:59:26.831Z,3.00
2023-04-04T19:01:57.976Z,3.10
2023-04-04T19:04:26.103Z,2.67
2023-04-04T19:06:55.253Z,3.10
2023-04-04T19:09:33.756Z,2.77
2023-04-04T19:12:03.932Z,2.87
2023-04-04T19:14:31.938Z,2.60
2023-04-04T19:17:00.056Z,3.10
2023-04-04T19:19:29.024Z,3.00
2023-04-04T19:21:57.155Z,2.50
2023-04-04T19:24:26.054Z,2.83
2023-04-04T19:27:10.680Z,2.73
2023-04-04T19:29:39.985Z,3.13
2023-04-04T19:32:13.922Z,2.90
2023-04-04T19:34:44.639Z,2.70
2023-04-04T19:37:13.282Z,3.13
2023-04-04T19:39:43.672Z,3.00
2023-04-04T19:42:13.246Z,2.83
2023-04-04T19:44:42.042Z,3.10
2023-04-04T19:47:18.671Z,2.93
2023-04-04T19:49:54.773Z,2.90
2023-04-04T19:52:25.330Z,3.27
2023-04-04T19:54:53.320Z,3.23
2023-04-04T19:57:24.135Z,3.47
2023-04-04T20:00:02.008Z,3.37
2023-04-04T20:02:50.732Z,3.20
2023-04-04T20:05:57.747Z,3.13
2023-04-04T20:08:33.498Z,3.00
2023-04-04T20:11:02.870Z,3.10
2023-04-04T20:13:35.020Z,2.83
2023-04-04T20:16:06.113Z,2.83
2023-04-04T20:18:35.937Z,3.10
2023-04-04T20:21:13.452Z,2.77
2023-04-04T20:23:52.309Z,2.60
2023-04-04T20:26:59.138Z,2.90
2023-04-04T20:29:30.952Z,3.20
2023-04-04T20:32:03.012Z,2.73
2023-04-04T20:34:42.819Z,3.00
2023-04-04T20:37:13.834Z,2.80
2023-04-04T20:39:47.061Z,2.97
2023-04-04T20:42:21.232Z,2.53
2023-04-04T20:45:00.594Z,3.17
2023-04-04T20:47:43.588Z,3.00
2023-04-04T20:50:44.012Z,3.20
2023-04-04T20:53:20.373Z,3.30
2023-04-04T20:55:50.296Z,2.83
2023-04-04T20:58:27.930Z,2.90
2023-04-04T21:00:58.328Z,2.70
2023-04-04T21:03:35.311Z,2.50
2023-04-04T21:06:32.794Z,3.23
2023-04-04T21:09:02.029Z,3.10
2023-04-04T21:11:30.480Z,3.00
2023-04-04T21:13:59.539Z,2.87
2023-04-04T21:16:32.078Z,2.73
2023-04-04T21:19:02.699Z,3.03
2023-04-04T21:21:36.518Z,3.10
2023-04-04T21:24:10.000Z,3.20
2023-04-04T21:26:46.173Z,3.20
2023-04-04T21:29:22.362Z,2.80
2023-04-04T21:31:54.295Z,2.57
2023-04-04T21:34:25.127Z,3.13
2023-04-04T21:37:03.305Z,3.00
2023-04-04T21:39:33.352Z,3.37
2023-04-04T21:42:06.826Z,3.17
2023-04-04T21:44:36.680Z,2.97
2023-04-04T21:47:06.702Z,3.00
2023-04-04T21:49:34.719Z,2.90
2023-04-04T21:52:02.789Z,2.90
2023-04-04T21:54:30.781Z,2.40
2023-04-04T21:56:58.820Z,2.77
2023-04-04T21:59:26.878Z,2.83
2023-04-04T22:01:59.075Z,3.40
2023-04-04T22:04:28.594Z,3.13
2023-04-04T22:06:58.669Z,3.07
2023-04-04T22:09:29.711Z,2.97
2023-04-04T22:11:58.943Z,3.20
2023-04-04T22:14:27.398Z,2.67
2023-04-04T22:16:58.898Z,2.33
2023-04-04T22:19:43.867Z,2.90
2023-04-04T22:22:11.897Z,2.80
2023-04-04T22:24:40.819Z,2.57
2023-04-04T22:27:08.855Z,3.00
2023-04-04T22:29:36.868Z,3.00
2023-04-04T22:32:05.169Z,3.00
2023-04-04T22:34:37.176Z,2.40
2023-04-04T22:37:05.454Z,2.83
2023-04-04T22:39:34.696Z,2.80
2023-04-04T22:42:12.679Z,3.50
2023-04-04T22:44:48.126Z,2.97
2023-04-04T22:47:26.083Z,3.30
2023-04-04T22:50:04.639Z,3.00
2023-04-04T22:52:42.107Z,3.00
2023-04-04T22:55:12.976Z,2.70
2023-04-04T22:57:45.140Z,2.80
2023-04-04T23:00:14.705Z,2.50
2023-04-04T23:02:43.913Z,3.00
2023-04-04T23:05:18.055Z,2.80
2023-04-04T23:07:47.355Z,2.63
2023-04-04T23:10:16.714Z,2.90
2023-04-04T23:12:44.859Z,2.83
2023-04-04T23:15:13.677Z,3.07
2023-04-04T23:17:41.726Z,2.87
2023-04-04T23:20:13.265Z,2.60
2023-04-04T23:22:41.654Z,2.53
2023-04-04T23:25:11.390Z,3.10
2023-04-04T23:27:40.157Z,2.87
2023-04-04T23:30:09.853Z,2.70
2023-04-04T23:32:37.877Z,2.90
2023-04-04T23:35:06.666Z,2.60
2023-04-04T23:37:36.037Z,3.00
2023-04-04T23:40:12.490Z,2.60
2023-04-04T23:42:40.731Z,2.60
2023-04-04T23:45:10.109Z,3.07
2023-04-04T23:47:40.779Z,2.93
2023-04-04T23:50:09.791Z,2.60
2023-04-04T23:52:39.478Z,2.90
2023-04-04T23:55:08.517Z,2.70
2023-04-04T23:57:36.674Z,2.30
